createdAt,value
2023-05-10T00:00:51.809Z,98891.85
2023-05-10T00:01:57.345Z,98888.90
2023-05-10T00:03:02.819Z,98886.80
2023-05-10T00:04:09.256Z,98890.17
2023-05-10T00:05:15.518Z,98884.93
2023-05-10T00:06:20.777Z,98886.38
2023-05-10T00:07:26.603Z,98889.73
2023-05-10T00:08:31.769Z,98883.92
2023-05-10T00:09:40.254Z,98885.35
2023-05-10T00:10:45.480Z,98885.05
2023-05-10T00:11:51.283Z,98882.30
2023-05-10T00:12:56.567Z,98884.85
2023-05-10T00:14:01.905Z,98883.47
2023-05-10T00:15:07.986Z,98887.14
2023-05-10T00:16:14.651Z,98887.06
2023-05-10T00:17:20.038Z,98891.73
2023-05-10T00:18:25.876Z,98887.98
2023-05-10T00:19:31.216Z,98883.79
2023-05-10T00:20:37.153Z,98879.30
2023-05-10T00:21:42.967Z,98880.50
2023-05-10T00:22:48.458Z,98879.45
2023-05-10T00:23:54.258Z,98876.32
2023-05-10T00:25:02.929Z,98876.19
2023-05-10T00:26:08.123Z,98877.58
2023-05-10T00:27:13.358Z,98874.73
2023-05-10T00:28:18.619Z,98875.51
2023-05-10T00:29:23.925Z,98880.15
2023-05-10T00:30:29.532Z,98878.48
2023-05-10T00:31:35.104Z,98877.00
2023-05-10T00:32:40.411Z,98874.55
2023-05-10T00:33:46.017Z,98874.04
2023-05-10T00:34:51.493Z,98876.95
2023-05-10T00:35:56.923Z,98875.50
2023-05-10T00:37:02.342Z,98873.33
2023-05-10T00:38:07.682Z,98873.84
2023-05-10T00:39:14.074Z,98872.99
2023-05-10T00:40:19.494Z,98873.80
2023-05-10T00:41:26.628Z,98874.67
2023-05-10T00:42:32.692Z,98878.04
2023-05-10T00:43:38.117Z,98878.10
2023-05-10T00:44:43.819Z,98876.73
2023-05-10T00:45:50.643Z,98877.09
2023-05-10T00:46:56.524Z,98878.88
2023-05-10T00:48:04.148Z,98873.97
2023-05-10T00:49:10.210Z,98873.46
2023-05-10T00:50:16.359Z,98872.14
2023-05-10T00:51:22.338Z,98874.33
2023-05-10T00:52:28.172Z,98876.48
2023-05-10T00:53:34.461Z,98873.91
2023-05-10T00:54:39.896Z,98853.36
2023-05-10T00:55:45.397Z,98847.92
2023-05-10T00:56:50.804Z,98845.40
2023-05-10T00:57:56.572Z,98847.31
2023-05-10T00:59:05.416Z,98846.46
2023-05-10T01:00:11.819Z,98843.99
2023-05-10T01:01:17.765Z,98842.41
2023-05-10T01:02:23.865Z,98842.23
2023-05-10T01:03:30.202Z,98842.48
2023-05-10T01:04:36.289Z,98842.52
2023-05-10T01:05:43.258Z,98845.48
2023-05-10T01:06:49.273Z,98845.92
2023-05-10T01:07:56.220Z,98845.91
2023-05-10T01:09:02.126Z,98843.61
2023-05-10T01:10:09.130Z,98845.25
2023-05-10T01:11:14.992Z,98845.45
2023-05-10T01:12:20.777Z,98846.23
2023-05-10T01:13:35.256Z,98847.36
2023-05-10T01:14:41.828Z,98849.98
2023-05-10T01:15:49.029Z,98848.55
2023-05-10T01:16:55.322Z,98853.55
2023-05-10T01:18:01.875Z,98849.88
2023-05-10T01:19:24.058Z,98849.21
2023-05-10T01:20:33.208Z,98852.27
2023-05-10T01:21:45.594Z,98850.67
2023-05-10T01:23:28.891Z,98851.89
2023-05-10T01:25:04.718Z,98853.91
2023-05-10T01:26:28.407Z,98853.27
2023-05-10T01:28:07.593Z,98854.13
2023-05-10T01:29:42.317Z,98856.15
2023-05-10T01:31:27.645Z,98849.36
2023-05-10T01:32:57.308Z,98852.59
2023-05-10T01:34:14.760Z,98852.84
2023-05-10T01:35:43.985Z,98849.05
2023-05-10T01:36:57.358Z,98854.02
2023-05-10T01:38:16.870Z,98855.25
2023-05-10T01:39:59.958Z,98853.17
2023-05-10T01:41:30.323Z,98853.51
2023-05-10T01:42:43.090Z,98853.08
2023-05-10T01:44:17.203Z,98854.13
2023-05-10T01:45:29.164Z,98852.86
2023-05-10T01:46:39.990Z,98851.45
2023-05-10T01:47:47.170Z,98852.41
2023-05-10T01:48:55.348Z,98851.39
2023-05-10T01:50:03.458Z,98844.70
2023-05-10T01:51:09.270Z,98844.72
2023-05-10T01:52:17.320Z,98846.08
2023-05-10T01:53:22.618Z,98848.99
2023-05-10T01:54:28.414Z,98852.30
2023-05-10T01:55:38.118Z,98852.41
2023-05-10T01:56:44.162Z,98849.45
2023-05-10T01:57:51.336Z,98850.29
2023-05-10T01:58:58.194Z,98853.42
2023-05-10T02:00:06.740Z,98851.57
2023-05-10T02:01:20.056Z,98853.64
2023-05-10T02:02:26.330Z,98857.88
2023-05-10T02:03:33.316Z,98858.33
2023-05-10T02:04:39.551Z,98855.77
2023-05-10T02:05:46.498Z,98859.11
2023-05-10T02:06:52.952Z,98861.58
2023-05-10T02:07:58.952Z,98862.20
2023-05-10T02:09:05.053Z,98859.64
2023-05-10T02:10:11.421Z,98859.95
2023-05-10T02:11:17.239Z,98861.73
2023-05-10T02:12:22.926Z,98865.56
2023-05-10T02:13:29.649Z,98865.43
2023-05-10T02:14:38.091Z,98864.85
2023-05-10T02:15:44.022Z,98863.80
2023-05-10T02:16:51.165Z,98862.14
2023-05-10T02:17:58.162Z,98862.46
2023-05-10T02:19:04.034Z,98866.16
2023-05-10T02:20:10.453Z,98871.16
2023-05-10T02:21:16.707Z,98871.30
2023-05-10T02:22:22.274Z,98871.27
2023-05-10T02:23:28.446Z,98872.12
2023-05-10T02:24:35.272Z,98870.54
2023-05-10T02:25:41.319Z,98874.45
2023-05-10T02:26:47.330Z,98872.28
2023-05-10T02:27:55.167Z,98873.35
2023-05-10T02:29:02.161Z,98873.81
2023-05-10T02:30:08.624Z,98871.86
2023-05-10T02:31:15.145Z,98871.48
2023-05-10T02:32:20.628Z,98872.20
2023-05-10T02:33:26.682Z,98873.62
2023-05-10T02:34:32.756Z,98872.98
2023-05-10T02:35:38.878Z,98877.34
2023-05-10T02:36:45.309Z,98880.60
2023-05-10T02:37:50.515Z,98883.30
2023-05-10T02:38:56.144Z,98884.52
2023-05-10T02:40:01.982Z,98885.63
2023-05-10T02:41:10.295Z,98887.75
2023-05-10T02:42:19.260Z,98885.09
2023-05-10T02:43:25.136Z,98889.91
2023-05-10T02:44:32.536Z,98891.32
2023-05-10T02:45:40.432Z,98892.61
2023-05-10T02:46:46.737Z,98895.13
2023-05-10T02:47:52.616Z,98896.68
2023-05-10T02:48:59.696Z,98902.37
2023-05-10T02:50:05.540Z,98904.01
2023-05-10T02:51:12.740Z,98905.42
2023-05-10T02:52:21.552Z,98908.26
2023-05-10T02:53:36.803Z,98910.43
2023-05-10T02:54:48.233Z,98909.86
2023-05-10T02:55:54.851Z,98911.86
2023-05-10T02:57:04.588Z,98914.24
2023-05-10T02:58:10.729Z,98916.88
2023-05-10T02:59:16.551Z,98918.27
2023-05-10T03:00:22.163Z,98917.03
2023-05-10T03:01:28.700Z,98914.28
2023-05-10T03:02:34.412Z,98915.67
2023-05-10T03:03:43.722Z,98915.71
2023-05-10T03:04:49.684Z,98919.65
2023-05-10T03:05:57.669Z,98918.06
2023-05-10T03:07:04.260Z,98918.45
2023-05-10T03:08:11.746Z,98917.94
2023-05-10T03:09:18.688Z,98918.86
2023-05-10T03:10:28.636Z,98916.23
2023-05-10T03:12:00.607Z,98917.70
2023-05-10T03:13:40.429Z,98922.09
2023-05-10T03:15:09.359Z,98922.59
2023-05-10T03:16:18.058Z,98924.14
2023-05-10T03:17:38.599Z,98928.42
2023-05-10T03:18:50.401Z,98929.30
2023-05-10T03:19:58.930Z,98933.59
2023-05-10T03:21:09.762Z,98934.80
2023-05-10T03:22:16.036Z,98933.95
2023-05-10T03:23:47.348Z,98934.06
2023-05-10T03:24:53.490Z,98934.77
2023-05-10T03:25:59.534Z,98933.80
2023-05-10T03:27:05.887Z,98936.00
2023-05-10T03:28:12.594Z,98938.67
2023-05-10T03:29:18.195Z,98942.78
2023-05-10T03:30:24.640Z,98938.49
2023-05-10T03:32:45.504Z,98940.33
2023-05-10T03:33:54.900Z,98941.41
2023-05-10T03:35:08.532Z,98941.05
2023-05-10T03:36:14.762Z,98946.80
2023-05-10T03:37:20.222Z,98949.14
2023-05-10T03:38:26.508Z,98953.33
2023-05-10T03:39:33.349Z,98955.54
2023-05-10T03:40:40.292Z,98963.08
2023-05-10T03:41:47.063Z,98962.26
2023-05-10T03:42:53.215Z,98964.86
2023-05-10T03:43:59.371Z,98966.09
2023-05-10T03:45:05.622Z,98962.90
2023-05-10T03:46:12.232Z,98964.39
2023-05-10T03:47:18.213Z,98963.70
2023-05-10T03:48:24.086Z,98967.69
2023-05-10T03:49:30.274Z,98970.63
2023-05-10T03:50:36.027Z,98969.60
2023-05-10T03:51:42.021Z,98971.73
2023-05-10T03:52:48.067Z,98966.59
2023-05-10T03:53:53.388Z,98969.66
2023-05-10T03:54:59.239Z,98971.36
2023-05-10T03:56:04.768Z,98971.82
2023-05-10T03:57:11.011Z,98971.92
2023-05-10T03:58:16.651Z,98972.05
2023-05-10T03:59:22.216Z,98974.49
2023-05-10T04:00:34.173Z,98971.64
2023-05-10T04:01:40.510Z,98979.80
2023-05-10T04:02:48.206Z,98984.86
2023-05-10T04:03:58.087Z,98981.88
2023-05-10T04:05:04.323Z,98980.48
2023-05-10T04:06:12.896Z,98979.48
2023-05-10T04:07:18.537Z,98982.23
2023-05-10T04:08:27.392Z,98984.77
2023-05-10T04:09:33.994Z,98983.02
2023-05-10T04:10:39.900Z,98983.27
2023-05-10T04:11:46.068Z,98980.46
2023-05-10T04:12:51.915Z,98980.38
2023-05-10T04:13:58.280Z,98980.59
2023-05-10T04:15:04.844Z,98978.63
2023-05-10T04:16:11.141Z,98981.41
2023-05-10T04:17:17.044Z,98982.20
2023-05-10T04:18:22.666Z,98982.59
2023-05-10T04:19:32.516Z,98982.48
2023-05-10T04:20:38.440Z,98981.83
2023-05-10T04:21:44.585Z,98982.31
2023-05-10T04:22:49.917Z,98981.08
2023-05-10T04:23:56.184Z,98980.78
2023-05-10T04:25:01.724Z,98982.61
2023-05-10T04:26:07.931Z,98982.52
2023-05-10T04:27:13.898Z,98982.73
2023-05-10T04:28:19.069Z,98983.85
2023-05-10T04:29:25.127Z,98983.81
2023-05-10T04:30:31.264Z,98985.30
2023-05-10T04:31:38.002Z,98981.94
2023-05-10T04:32:43.797Z,98983.80
2023-05-10T04:33:49.623Z,98987.08
2023-05-10T04:34:55.495Z,98985.71
2023-05-10T04:36:00.659Z,98988.27
2023-05-10T04:37:06.803Z,98990.84
2023-05-10T04:38:13.236Z,98986.23
2023-05-10T04:39:18.997Z,98987.27
2023-05-10T04:40:24.723Z,98988.64
2023-05-10T04:41:30.084Z,98984.53
2023-05-10T04:42:35.597Z,98984.77
2023-05-10T04:43:41.242Z,98984.66
2023-05-10T04:44:46.480Z,98986.35
2023-05-10T04:45:52.135Z,98984.80
2023-05-10T04:46:57.779Z,98988.45
2023-05-10T04:48:03.884Z,98988.29
2023-05-10T04:49:10.338Z,98990.14
2023-05-10T04:50:16.388Z,98990.77
2023-05-10T04:51:22.420Z,98990.34
2023-05-10T04:52:28.440Z,98990.75
2023-05-10T04:53:34.374Z,98993.20
2023-05-10T04:54:40.829Z,98990.92
2023-05-10T04:55:48.054Z,98994.20
2023-05-10T04:56:54.049Z,98993.36
2023-05-10T04:58:00.543Z,98993.60
2023-05-10T04:59:06.866Z,98995.29
2023-05-10T05:00:13.796Z,98994.30
2023-05-10T05:01:19.058Z,98998.85
2023-05-10T05:02:25.613Z,98997.98
2023-05-10T05:03:31.568Z,98998.91
2023-05-10T05:04:37.682Z,98998.91
2023-05-10T05:05:43.617Z,99002.56
2023-05-10T05:06:51.648Z,99002.19
2023-05-10T05:07:59.085Z,99005.20
2023-05-10T05:09:05.227Z,99007.41
2023-05-10T05:10:11.456Z,99011.09
2023-05-10T05:11:17.385Z,99008.72
2023-05-10T05:12:23.043Z,99009.70
2023-05-10T05:13:28.573Z,99010.30
2023-05-10T05:14:33.807Z,99009.10
2023-05-10T05:15:39.341Z,99006.30
2023-05-10T05:16:44.641Z,99002.02
2023-05-10T05:17:49.943Z,99000.02
2023-05-10T05:18:55.141Z,98997.60
2023-05-10T05:20:00.693Z,98998.67
2023-05-10T05:21:15.096Z,98997.12
2023-05-10T05:22:28.405Z,98997.54
2023-05-10T05:23:34.114Z,98998.30
2023-05-10T05:24:39.851Z,98998.34
2023-05-10T05:25:45.690Z,98998.83
2023-05-10T05:26:51.293Z,98999.23
2023-05-10T05:27:57.491Z,98998.05
2023-05-10T05:29:03.279Z,98996.50
2023-05-10T05:30:09.525Z,98993.55
2023-05-10T05:31:16.004Z,98994.33
2023-05-10T05:32:21.393Z,98988.47
2023-05-10T05:33:27.360Z,98986.20
2023-05-10T05:34:33.649Z,98983.09
2023-05-10T05:35:39.778Z,98984.73
2023-05-10T05:36:46.156Z,98982.09
2023-05-10T05:37:51.743Z,98983.30
2023-05-10T05:38:57.312Z,98984.70
2023-05-10T05:40:03.778Z,98986.72
2023-05-10T05:41:09.338Z,98987.66
2023-05-10T05:42:16.045Z,98989.52
2023-05-10T05:43:21.289Z,98990.30
2023-05-10T05:44:27.248Z,98989.67
2023-05-10T05:45:33.499Z,98991.52
2023-05-10T05:46:39.777Z,98988.73
2023-05-10T05:47:45.812Z,98992.41
2023-05-10T05:48:51.749Z,98992.52
2023-05-10T05:49:58.185Z,98991.51
2023-05-10T05:51:07.080Z,98993.52
2023-05-10T05:52:13.799Z,98991.06
2023-05-10T05:53:19.417Z,98996.00
2023-05-10T05:54:25.402Z,98993.40
2023-05-10T05:55:33.277Z,98993.15
2023-05-10T05:56:39.846Z,98994.96
2023-05-10T05:57:46.052Z,98989.45
2023-05-10T05:58:52.005Z,98987.40
2023-05-10T05:59:57.981Z,98985.84
2023-05-10T06:01:03.826Z,98983.70
2023-05-10T06:02:09.866Z,98985.08
2023-05-10T06:03:15.371Z,98980.48
2023-05-10T06:04:21.088Z,98978.20
2023-05-10T06:05:27.193Z,98976.27
2023-05-10T06:06:33.888Z,98974.39
2023-05-10T06:07:39.928Z,98971.64
2023-05-10T06:08:45.760Z,98969.19
2023-05-10T06:09:52.246Z,98967.64
2023-05-10T06:10:58.633Z,98962.67
2023-05-10T06:12:04.337Z,98964.20
2023-05-10T06:13:09.831Z,98960.02
2023-05-10T06:14:15.687Z,98960.95
2023-05-10T06:15:22.226Z,98955.02
2023-05-10T06:16:28.602Z,98957.48
2023-05-10T06:17:34.893Z,98959.27
2023-05-10T06:18:41.416Z,98961.92
2023-05-10T06:19:50.860Z,98964.31
2023-05-10T06:20:56.983Z,98965.99
2023-05-10T06:22:03.039Z,98972.36
2023-05-10T06:23:09.654Z,98975.75
2023-05-10T06:24:15.440Z,98976.73
2023-05-10T06:25:21.021Z,98976.47
2023-05-10T06:26:27.341Z,98980.90
2023-05-10T06:27:33.503Z,98980.23
2023-05-10T06:28:40.586Z,98983.06
2023-05-10T06:29:46.581Z,98985.24
2023-05-10T06:30:51.954Z,98985.73
2023-05-10T06:31:57.527Z,98986.01
2023-05-10T06:33:03.318Z,98983.20
2023-05-10T06:34:09.999Z,98980.35
2023-05-10T06:35:15.956Z,98979.38
2023-05-10T06:36:22.451Z,98980.40
2023-05-10T06:37:28.735Z,98978.67
2023-05-10T06:38:34.997Z,98976.02
2023-05-10T06:39:40.751Z,98975.05
2023-05-10T06:40:49.238Z,98979.61
2023-05-10T06:41:55.725Z,98977.92
2023-05-10T06:43:01.442Z,98977.60
2023-05-10T06:44:06.679Z,98978.08
2023-05-10T06:45:13.139Z,98979.44
2023-05-10T06:46:18.888Z,98984.16
2023-05-10T06:47:24.232Z,98989.16
2023-05-10T06:48:30.275Z,98992.67
2023-05-10T06:49:42.326Z,99000.52
2023-05-10T06:50:48.214Z,99004.96
2023-05-10T06:51:53.446Z,99006.36
2023-05-10T06:52:59.577Z,99011.01
2023-05-10T06:54:05.210Z,99013.70
2023-05-10T06:55:11.280Z,99015.59
2023-05-10T06:56:17.106Z,99016.07
2023-05-10T06:57:31.153Z,99018.13
2023-05-10T06:58:37.107Z,99014.77
2023-05-10T06:59:42.791Z,99011.23
2023-05-10T07:00:48.893Z,99005.94
2023-05-10T07:01:55.265Z,99005.30
2023-05-10T07:03:00.941Z,99001.27
2023-05-10T07:04:07.282Z,99001.55
2023-05-10T07:05:13.906Z,98997.67
2023-05-10T07:06:32.260Z,98997.45
2023-05-10T07:07:39.689Z,98998.77
2023-05-10T07:08:45.756Z,99000.86
2023-05-10T07:09:51.904Z,99002.86
2023-05-10T07:11:03.288Z,99007.47
2023-05-10T07:12:11.130Z,99009.74
2023-05-10T07:13:18.080Z,99007.10
2023-05-10T07:14:23.956Z,99005.91
2023-05-10T07:15:30.242Z,99002.55
2023-05-10T07:16:36.434Z,99000.86
2023-05-10T07:17:44.137Z,99001.13
2023-05-10T07:18:52.331Z,98998.16
2023-05-10T07:19:58.312Z,98998.58
2023-05-10T07:21:04.665Z,99002.48
2023-05-10T07:22:10.461Z,99004.20
2023-05-10T07:23:16.635Z,99004.80
2023-05-10T07:24:22.621Z,99004.20
2023-05-10T07:25:28.877Z,99003.64
2023-05-10T07:26:35.356Z,99007.39
2023-05-10T07:27:41.635Z,99006.67
2023-05-10T07:28:47.847Z,99006.77
2023-05-10T07:29:53.681Z,99002.29
2023-05-10T07:30:59.281Z,99001.30
2023-05-10T07:32:05.194Z,99003.56
2023-05-10T07:33:11.739Z,99003.73
2023-05-10T07:34:17.494Z,99005.46
2023-05-10T07:35:22.910Z,99005.83
2023-05-10T07:36:29.668Z,99006.27
2023-05-10T07:37:36.736Z,99002.73
2023-05-10T07:38:43.046Z,99004.83
2023-05-10T07:39:49.064Z,99001.52
2023-05-10T07:40:55.339Z,99003.86
2023-05-10T07:42:01.649Z,99002.75
2023-05-10T07:43:07.917Z,99003.95
2023-05-10T07:44:13.958Z,99003.83
2023-05-10T07:45:20.116Z,99000.35
2023-05-10T07:46:25.949Z,99000.61
2023-05-10T07:47:32.226Z,98999.84
2023-05-10T07:48:39.592Z,99001.02
2023-05-10T07:49:45.598Z,98999.98
2023-05-10T07:50:50.856Z,99002.30
2023-05-10T07:51:56.700Z,99001.70
2023-05-10T07:53:02.018Z,99003.63
2023-05-10T07:54:07.833Z,99006.19
2023-05-10T07:55:13.912Z,99008.95
2023-05-10T07:56:28.777Z,99009.42
2023-05-10T07:57:35.196Z,99006.49
2023-05-10T07:58:41.013Z,99008.26
2023-05-10T07:59:47.039Z,99007.61
2023-05-10T08:00:52.611Z,99003.75
2023-05-10T08:01:58.943Z,99004.41
2023-05-10T08:03:05.777Z,98996.25
2023-05-10T08:04:13.249Z,99001.61
2023-05-10T08:05:19.170Z,99002.36
2023-05-10T08:06:25.327Z,99002.67
2023-05-10T08:07:31.585Z,99001.14
2023-05-10T08:08:38.106Z,99001.28
2023-05-10T08:09:44.253Z,99001.43
2023-05-10T08:10:50.189Z,98999.52
2023-05-10T08:11:56.822Z,98994.52
2023-05-10T08:13:03.058Z,98988.88
2023-05-10T08:14:09.046Z,98988.26
2023-05-10T08:15:14.963Z,98981.48
2023-05-10T08:16:21.610Z,98977.39
2023-05-10T08:17:30.593Z,98974.71
2023-05-10T08:18:36.443Z,98972.69
2023-05-10T08:19:42.390Z,98970.38
2023-05-10T08:20:48.220Z,98966.90
2023-05-10T08:21:54.834Z,98964.70
2023-05-10T08:23:00.930Z,98962.46
2023-05-10T08:24:06.698Z,98963.81
2023-05-10T08:25:12.808Z,98965.36
2023-05-10T08:26:18.240Z,98964.54
2023-05-10T08:27:23.432Z,98960.94
2023-05-10T08:28:29.324Z,98964.67
2023-05-10T08:29:49.653Z,98960.04
2023-05-10T08:30:55.976Z,98958.67
2023-05-10T08:32:02.226Z,98955.38
2023-05-10T08:33:07.954Z,98952.21
2023-05-10T08:34:13.849Z,98952.47
2023-05-10T08:35:19.217Z,98952.88
2023-05-10T08:36:25.749Z,98955.48
2023-05-10T08:37:34.240Z,98960.95
2023-05-10T08:38:40.663Z,98958.86
2023-05-10T08:39:49.379Z,98959.55
2023-05-10T08:40:58.057Z,98962.73
2023-05-10T08:42:06.226Z,98962.50
2023-05-10T08:43:13.764Z,98968.36
2023-05-10T08:44:19.893Z,98965.33
2023-05-10T08:45:25.684Z,98968.36
2023-05-10T08:46:32.248Z,98966.47
2023-05-10T08:47:39.506Z,98965.84
2023-05-10T08:48:45.311Z,98970.34
2023-05-10T08:49:52.729Z,98969.42
2023-05-10T08:50:59.410Z,98970.89
2023-05-10T08:52:07.163Z,98971.90
2023-05-10T08:53:14.630Z,98973.98
2023-05-10T08:54:20.060Z,98973.39
2023-05-10T08:55:26.403Z,98970.54
2023-05-10T08:56:32.323Z,98970.64
2023-05-10T08:57:38.889Z,98969.12
2023-05-10T08:58:45.213Z,98966.48
2023-05-10T08:59:51.557Z,98966.17
2023-05-10T09:00:57.748Z,98969.95
2023-05-10T09:02:04.084Z,98968.40
2023-05-10T09:03:10.282Z,98969.11
2023-05-10T09:04:16.507Z,98968.27
2023-05-10T09:05:21.899Z,98965.30
2023-05-10T09:06:27.701Z,98957.63
2023-05-10T09:07:34.284Z,98957.39
2023-05-10T09:08:42.085Z,98952.96
2023-05-10T09:09:47.846Z,98949.52
2023-05-10T09:10:53.331Z,98949.05
2023-05-10T09:11:59.750Z,98948.11
2023-05-10T09:13:06.318Z,98949.98
2023-05-10T09:14:12.252Z,98949.20
2023-05-10T09:15:18.076Z,98948.26
2023-05-10T09:16:24.075Z,98949.80
2023-05-10T09:17:30.419Z,98948.25
2023-05-10T09:18:36.737Z,98948.79
2023-05-10T09:19:43.085Z,98950.33
2023-05-10T09:20:49.019Z,98948.13
2023-05-10T09:21:54.866Z,98947.30
2023-05-10T09:23:00.733Z,98949.92
2023-05-10T09:24:07.910Z,98952.37
2023-05-10T09:25:15.871Z,98953.38
2023-05-10T09:26:25.048Z,98958.39
2023-05-10T09:27:31.122Z,98957.45
2023-05-10T09:28:51.892Z,98962.06
2023-05-10T09:29:58.217Z,98962.20
2023-05-10T09:31:04.684Z,98957.06
2023-05-10T09:32:10.490Z,98956.27
2023-05-10T09:33:16.305Z,98954.40
2023-05-10T09:34:22.686Z,98952.91
2023-05-10T09:35:30.293Z,98954.36
2023-05-10T09:36:36.365Z,98955.20
2023-05-10T09:37:45.338Z,98955.76
2023-05-10T09:38:53.169Z,98954.42
2023-05-10T09:39:59.023Z,98952.55
2023-05-10T09:41:05.832Z,98951.55
2023-05-10T09:42:13.023Z,98947.50
2023-05-10T09:43:18.372Z,98944.37
2023-05-10T09:44:24.136Z,98946.52
2023-05-10T09:45:34.190Z,98945.52
2023-05-10T09:46:41.672Z,98946.75
2023-05-10T09:47:47.813Z,98949.93
2023-05-10T09:48:53.700Z,98950.45
2023-05-10T09:50:05.135Z,98955.74
2023-05-10T09:51:11.247Z,98959.44
2023-05-10T09:52:16.709Z,98961.36
2023-05-10T09:53:22.533Z,98959.33
2023-05-10T09:54:29.121Z,98956.95
2023-05-10T09:55:46.385Z,98959.09
2023-05-10T09:56:52.197Z,98955.58
2023-05-10T09:58:02.022Z,98953.53
2023-05-10T09:59:07.878Z,98951.89
2023-05-10T10:00:14.597Z,98955.21
2023-05-10T10:01:19.719Z,98957.67
2023-05-10T10:02:30.889Z,98958.92
2023-05-10T10:03:36.966Z,98961.39
2023-05-10T10:04:43.341Z,98961.89
2023-05-10T10:05:49.874Z,98962.31
2023-05-10T10:07:04.511Z,98965.71
2023-05-10T10:08:10.980Z,98963.92
2023-05-10T10:09:16.928Z,98964.95
2023-05-10T10:10:22.362Z,98962.79
2023-05-10T10:11:29.732Z,98964.13
2023-05-10T10:12:36.646Z,98963.34
2023-05-10T10:13:42.640Z,98964.45
2023-05-10T10:14:51.907Z,98965.40
2023-05-10T10:15:57.852Z,98965.65
2023-05-10T10:17:08.131Z,98964.41
2023-05-10T10:18:17.864Z,98960.90
2023-05-10T10:19:23.871Z,98957.77
2023-05-10T10:20:30.466Z,98963.08
2023-05-10T10:21:36.462Z,98965.29
2023-05-10T10:22:42.593Z,98969.88
2023-05-10T10:23:49.383Z,98973.65
2023-05-10T10:24:55.339Z,98973.41
2023-05-10T10:26:01.672Z,98976.04
2023-05-10T10:27:27.609Z,98978.52
2023-05-10T10:29:12.278Z,98980.33
2023-05-10T10:30:44.414Z,98984.82
2023-05-10T10:32:22.342Z,98988.27
2023-05-10T10:33:54.154Z,98983.56
2023-05-10T10:34:59.954Z,98980.45
2023-05-10T10:36:06.640Z,98981.02
2023-05-10T10:37:12.720Z,98985.30
2023-05-10T10:38:18.990Z,98985.88
2023-05-10T10:39:29.022Z,98988.69
2023-05-10T10:40:35.604Z,98985.88
2023-05-10T10:41:55.659Z,98985.64
2023-05-10T10:43:21.028Z,98985.21
2023-05-10T10:44:40.996Z,98983.48
2023-05-10T10:45:46.786Z,98981.66
2023-05-10T10:47:31.445Z,98982.91
2023-05-10T10:48:37.374Z,98982.63
2023-05-10T10:49:51.210Z,98983.96
2023-05-10T10:50:59.999Z,98984.37
2023-05-10T10:52:35.682Z,98987.56
2023-05-10T10:53:42.011Z,98986.23
2023-05-10T10:55:16.643Z,98986.30
2023-05-10T10:56:24.940Z,98985.13
2023-05-10T10:57:33.123Z,98985.31
2023-05-10T10:58:39.936Z,98986.48
2023-05-10T10:59:46.772Z,98984.30
2023-05-10T11:00:52.485Z,98986.08
2023-05-10T11:01:57.752Z,98985.23
2023-05-10T11:03:20.788Z,98984.66
2023-05-10T11:04:26.709Z,98992.02
2023-05-10T11:05:53.617Z,98995.37
2023-05-10T11:07:19.067Z,98993.65
2023-05-10T11:08:38.119Z,98993.56
2023-05-10T11:09:44.815Z,98990.98
2023-05-10T11:11:08.815Z,98990.67
2023-05-10T11:12:14.693Z,98989.44
2023-05-10T11:13:43.387Z,98989.20
2023-05-10T11:14:52.949Z,98987.46
2023-05-10T11:15:59.747Z,98989.52
2023-05-10T11:17:29.723Z,98993.30
2023-05-10T11:18:35.292Z,98991.73
2023-05-10T11:19:56.497Z,98993.61
2023-05-10T11:21:06.561Z,98997.55
2023-05-10T11:22:15.586Z,98999.48
2023-05-10T11:23:22.703Z,98997.52
2023-05-10T11:24:29.773Z,99000.27
2023-05-10T11:25:35.573Z,99001.98
2023-05-10T11:26:41.318Z,99001.08
2023-05-10T11:27:47.488Z,99001.65
2023-05-10T11:29:03.448Z,99003.24
2023-05-10T11:30:11.660Z,99003.17
2023-05-10T11:31:18.468Z,98990.98
2023-05-10T11:32:24.116Z,98978.84
2023-05-10T11:33:30.113Z,98978.05
2023-05-10T11:34:36.371Z,98981.23
2023-05-10T11:35:43.698Z,98982.61
2023-05-10T11:36:52.558Z,98986.16
2023-05-10T11:37:58.517Z,98985.80
2023-05-10T11:39:05.279Z,98984.52
2023-05-10T11:40:11.727Z,98988.95
2023-05-10T11:41:19.217Z,98991.86
2023-05-10T11:42:24.619Z,98989.73
2023-05-10T11:43:32.482Z,98988.65
2023-05-10T11:44:38.497Z,98988.23
2023-05-10T11:45:44.110Z,98984.98
2023-05-10T11:46:50.020Z,98986.00
2023-05-10T11:47:55.321Z,98981.87
2023-05-10T11:49:08.320Z,98983.63
2023-05-10T11:50:14.227Z,98984.23
2023-05-10T11:51:24.092Z,98979.52
2023-05-10T11:52:30.632Z,98981.98
2023-05-10T11:53:35.904Z,98984.30
2023-05-10T11:54:49.280Z,98984.64
2023-05-10T11:55:54.744Z,98983.99
2023-05-10T11:57:00.869Z,98986.30
2023-05-10T11:58:07.760Z,98984.52
2023-05-10T11:59:15.684Z,98984.64
2023-05-10T12:00:22.144Z,98988.85
2023-05-10T12:01:28.941Z,98989.52
2023-05-10T12:02:35.261Z,98992.77
2023-05-10T12:03:41.786Z,98992.91
2023-05-10T12:04:47.357Z,98992.70
2023-05-10T12:05:52.960Z,98993.80
2023-05-10T12:06:58.514Z,98993.67
2023-05-10T12:08:15.250Z,98996.36
2023-05-10T12:09:31.495Z,98998.39
2023-05-10T12:10:46.121Z,98998.56
2023-05-10T12:11:51.685Z,98997.39
2023-05-10T12:12:57.842Z,98998.09
2023-05-10T12:14:07.352Z,99000.73
2023-05-10T12:15:15.324Z,99000.21
2023-05-10T12:16:22.777Z,99003.77
2023-05-10T12:17:31.865Z,99000.29
2023-05-10T12:18:38.409Z,98999.10
2023-05-10T12:19:45.326Z,99001.35
2023-05-10T12:20:52.145Z,99002.46
2023-05-10T12:21:58.323Z,99004.07
2023-05-10T12:23:05.286Z,99003.30
2023-05-10T12:24:12.027Z,99004.32
2023-05-10T12:25:18.300Z,99002.26
2023-05-10T12:26:25.158Z,99005.49
2023-05-10T12:27:34.989Z,99005.17
2023-05-10T12:28:44.366Z,99003.48
2023-05-10T12:29:49.951Z,99008.42
2023-05-10T12:30:56.422Z,99008.82
2023-05-10T12:32:01.948Z,99009.59
2023-05-10T12:33:12.401Z,99011.30
2023-05-10T12:34:27.804Z,99011.30
2023-05-10T12:35:33.906Z,99010.34
2023-05-10T12:36:41.219Z,99011.45
2023-05-10T12:37:47.764Z,99016.09
2023-05-10T12:38:54.135Z,99017.57
2023-05-10T12:40:00.266Z,99019.11
2023-05-10T12:41:08.246Z,99021.42
2023-05-10T12:42:14.217Z,99021.98
2023-05-10T12:43:19.946Z,99022.38
2023-05-10T12:44:26.738Z,99025.27
2023-05-10T12:45:32.991Z,99023.98
2023-05-10T12:46:38.897Z,99027.21
2023-05-10T12:47:44.905Z,99027.39
2023-05-10T12:49:07.702Z,99027.25
2023-05-10T12:50:14.972Z,99028.39
2023-05-10T12:51:23.800Z,99027.11
2023-05-10T12:52:30.369Z,99029.95
2023-05-10T12:53:36.378Z,99028.77
2023-05-10T12:54:42.759Z,99028.36
2023-05-10T12:55:48.970Z,99031.09
2023-05-10T12:56:54.669Z,99029.13
2023-05-10T12:58:00.330Z,99029.09
2023-05-10T12:59:06.388Z,99031.45
2023-05-10T13:00:12.985Z,99031.19
2023-05-10T13:01:18.928Z,99032.77
2023-05-10T13:02:24.623Z,99034.91
2023-05-10T13:03:30.835Z,99035.14
2023-05-10T13:04:39.286Z,99034.89
2023-05-10T13:05:45.305Z,99034.30
2023-05-10T13:06:50.666Z,99033.88
2023-05-10T13:07:57.025Z,99036.30
2023-05-10T13:09:03.208Z,99039.39
2023-05-10T13:10:10.378Z,99041.15
2023-05-10T13:11:18.571Z,99045.63
2023-05-10T13:12:24.340Z,99050.12
2023-05-10T13:13:30.781Z,99047.84
2023-05-10T13:14:36.992Z,99050.69
2023-05-10T13:15:43.288Z,99052.30
2023-05-10T13:16:49.625Z,99058.31
2023-05-10T13:17:55.553Z,99058.70
2023-05-10T13:19:04.884Z,99058.66
2023-05-10T13:20:14.169Z,99060.48
2023-05-10T13:21:19.860Z,99062.95